Insider Trading activities of Rackspace Hosting, Inc. insiders. , Part 4

Monthly summaries of insider trading activities (stock purchases, sales, and option exercises) reported by insiders of Rackspace Hosting, Inc. since 2005 are illustrated in Table 1 and Table 2. Table 1 shows the monthly insider trading data of Rackspace Hosting, Inc. since year 2005. (See page 1 of this report.) Table 2 shows the detailed insider transactions of Rackspace Hosting, Inc. since 2005. The reporting company's ticker symbol is RAX. The reporting company's CIK number is 1107694.
The total value of stock buying since 2005 is $67,338,433.
The total value of stock sales since 2005 is $532,092,399.
The total value of stock option exercises since 2005 is $18,064,866.


Go to page:  1   2   3   4   5   6 

Table 2. Detailed insider stock purchases, sales, and option exercises of Rackspace Hosting, Inc. insiders (RAX) , Part 4
  Trade Date   Insider Name Trade Type     Shares       Price ($)   Value ($)
2011-02-15 Napier A Lanham (CEO and President) Option Ex 225,000 2.50 562,500
2011-02-14 Roenigk Mark (Chief Operating Officer) Sale 11,888 39.61 470,836
2011-02-14 Roenigk Mark (Chief Operating Officer) Option Ex 11,888 19.89 236,452
2011-02-14 Napier A Lanham (CEO and President) Sale 230,000 39.60 9,108,230
2011-02-14 Napier A Lanham (CEO and President) Option Ex 230,000 2.50 575,000
2011-02-14 Bishkin S. James Sale 30,000 39.60 1,188,150
2011-02-01 Matthews Patrick M. (SVP and GM, Cloud) Sale 3,000 34.12 102,368
2011-02-01 Kleber Klee Robert (SVP Marketing and Product Dev.) Sale 10,000 34.14 341,430
2011-02-01 Kleber Klee Robert (SVP Marketing and Product Dev.) Option Ex 10,000 4.94 49,400
2011-02-01 Moorman Lew (President, Cloud) Sale 14,750 34.13 503,446
2011-02-01 Moorman Lew (President, Cloud) Option Ex 12,500 1.20 15,000
2011-01-03 Matthews Patrick M. (SVP and GM, Cloud) Sale 3,000 31.82 95,460
2011-01-03 Kleber Klee Robert (SVP Marketing and Product Dev.) Sale 10,000 31.81 318,130
2011-01-03 Kleber Klee Robert (SVP Marketing and Product Dev.) Option Ex 10,000 4.94 49,400
2011-01-03 Moorman Lew (President, Cloud) Sale 14,750 31.81 469,227
2011-01-03 Moorman Lew (President, Cloud) Option Ex 12,500 1.20 15,000
2010-12-14 Roenigk Mark (Chief Operating Officer) Sale 8,310 31.99 265,820
2010-12-14 Still George J Jr (Director) Sale 80,000 31.94 2,555,040
2010-12-10 Matthews Patrick M. (SVP and GM, Cloud) Sale 10,000 31.11 311,060
2010-12-10 Still George J Jr (Director) Sale 80,000 32.32 2,585,680
2010-12-06 Still George J Jr (Director) Sale 15,000 30.46 456,960
2010-12-03 Still George J Jr (Director) Sale 40,000 30.07 1,202,600
2010-12-01 Matthews Patrick M. (SVP and GM, Cloud) Sale 3,000 30.06 90,174
2010-12-01 Bishkin S. James Sale 18,813 30.04 565,086
2010-12-01 Kleber Klee Robert (SVP Marketing and Product Dev.) Sale 10,000 30.05 300,480
2010-12-01 Kleber Klee Robert (SVP Marketing and Product Dev.) Option Ex 10,000 4.94 49,400
2010-12-01 Moorman Lew (President, Cloud) Sale 14,750 30.04 443,045
2010-12-01 Moorman Lew (President, Cloud) Option Ex 12,500 1.20 15,000
2010-12-01 Knooihuizen Bruce R (Chief Financial Officer) Sale 50,000 30.04 1,502,000
2010-12-01 Knooihuizen Bruce R (Chief Financial Officer) Option Ex 50,000 9.14 457,000
2010-11-15 Wells Fargo & Co/mn (10% Owner) Sale 108,634 27.46 2,983,089
2010-11-12 Wells Fargo & Co/mn (10% Owner) Sale 116,366 28.07 3,266,393
2010-11-11 Lewandowski James (Senior VP, Hybrid) Sale 37,500 28.44 1,066,575
2010-11-11 Lewandowski James (Senior VP, Hybrid) Option Ex 37,500 3.35 125,437
2010-11-11 Wells Fargo & Co/mn (10% Owner) Sale 470,177 28.32 13,315,412
2010-11-10 Bishkin S. James Sale 27,300 28.02 764,864
2010-11-10 Kleber Klee Robert (SVP Marketing and Product Dev.) Sale 10,000 27.73 277,280
2010-11-10 Kleber Klee Robert (SVP Marketing and Product Dev.) Option Ex 10,000 4.94 49,400
2010-11-10 Wells Fargo & Co/mn (10% Owner) Sale 300,000 28.22 8,466,000
2010-11-09 Bishkin S. James Sale 4,200 28.01 117,625
2010-11-09 Wells Fargo & Co/mn (10% Owner) Sale 250,000 27.30 6,825,000
2010-11-08 Wells Fargo & Co/mn (10% Owner) Sale 170,000 26.44 4,494,800
2010-11-05 Wells Fargo & Co/mn (10% Owner) Sale 150,000 26.50 3,975,000
2010-11-04 Wells Fargo & Co/mn (10% Owner) Sale 125,000 26.43 3,303,750
2010-11-03 Wells Fargo & Co/mn (10% Owner) Sale 420,000 26.25 11,025,000
2010-11-02 Wells Fargo & Co/mn (10% Owner) Sale 150,000 26.10 3,915,000
2010-11-01 Roberts Phillip Wayne Jr (Senior VP, HR) Sale 3,000 25.40 76,209
2010-11-01 Roberts Phillip Wayne Jr (Senior VP, HR) Option Ex 3,000 5.09 15,270
2010-11-01 Moorman Lew (President, Cloud) Sale 14,750 25.42 374,900
2010-11-01 Moorman Lew (President, Cloud) Option Ex 12,500 1.20 15,000
2010-10-01 Roberts Phillip Wayne Jr (Senior VP, HR) Sale 3,000 25.68 77,028
2010-10-01 Roberts Phillip Wayne Jr (Senior VP, HR) Option Ex 3,000 5.09 15,270
2010-10-01 Moorman Lew (President, Cloud) Sale 14,750 25.67 378,691
2010-10-01 Moorman Lew (President, Cloud) Option Ex 12,500 1.20 15,000
2010-09-28 Knooihuizen Bruce R (Chief Financial Officer) Sale 50,000 24.95 1,247,600
2010-09-28 Knooihuizen Bruce R (Chief Financial Officer) Option Ex 50,000 5.09 254,500
2010-09-24 Bishkin S. James Sale 42,000 25.00 1,057,140
2010-09-23 Moorman Lew (President, Cloud) Sale 6,938 23.02 159,733
2010-09-22 Moorman Lew (President, Cloud) Sale 42,393 23.06 977,413
2010-09-21 Moorman Lew (President, Cloud) Sale 50,669 23.07 1,168,883
2010-09-14 Still George J Jr (Director) Sale 34,262 21.79 746,431
2010-09-13 Matthews Patrick M. (VP and GM, Cloud) Sale 15,000 22.50 337,500
2010-09-13 Still George J Jr (Director) Sale 10,000 22.37 223,670
2010-09-13 Moorman Lew (President, Cloud) Sale 100,000 22.24 2,224,100
2010-09-09 Moorman Lew (President, Cloud) Sale 100,000 21.02 2,102,400
2010-09-01 Roberts Phillip Wayne Jr (Senior VP, HR) Sale 3,000 20.06 60,189
2010-09-01 Roberts Phillip Wayne Jr (Senior VP, HR) Option Ex 3,000 5.09 15,270
2010-09-01 Moorman Lew (President, Cloud) Sale 14,750 19.66 289,955
2010-09-01 Moorman Lew (President, Cloud) Option Ex 12,500 1.20 15,000
2010-08-27 Moorman Lew (President, Cloud) Sale 31,350 20.01 627,282
2010-08-26 Roberts Phillip Wayne Jr (Senior VP, HR) Sale 12,000 20.07 240,780
2010-08-26 Roberts Phillip Wayne Jr (Senior VP, HR) Option Ex 12,000 6.29 75,420
2010-08-26 Moorman Lew (President, Cloud) Sale 68,650 20.07 1,377,462
2010-08-18 Bishkin S. James Sale 5,500 18.70 102,850
2010-08-11 Moorman Lew (President, Cloud) Sale 14,750 18.63 274,822
2010-08-11 Moorman Lew (President, Cloud) Option Ex 12,500 1.20 15,000
2010-08-04 Bishkin S. James Sale 5,500 19.70 108,339
2010-08-03 Kleber Klee Robert (SVP Marketing and Product Dev.) Sale 10,000 19.68 196,750
2010-08-03 Kleber Klee Robert (SVP Marketing and Product Dev.) Option Ex 10,000 4.94 49,400
2010-07-21 Bishkin S. James Sale 5,000 17.01 85,045
2010-07-07 Bishkin S. James Sale 6,000 17.48 107,284
2010-06-23 Bishkin S. James Sale 5,500 18.71 102,905
2010-06-21 Kleber Klee Robert (SVP Marketing and Product Dev.) Sale 4,800 19.86 95,347
2010-06-21 Kleber Klee Robert (SVP Marketing and Product Dev.) Option Ex 4,800 4.94 23,712
2010-06-18 Kleber Klee Robert (SVP Marketing and Product Dev.) Sale 5,200 19.67 102,284
2010-06-18 Kleber Klee Robert (SVP Marketing and Product Dev.) Option Ex 5,200 4.94 25,688
2010-06-01 Moorman Lew (President, The Rackspace Cloud) Sale 10,000 18.60 186,020
2010-06-01 Moorman Lew (President, The Rackspace Cloud) Option Ex 10,000 1.20 12,000
2010-05-26 Bishkin S. James Sale 5,500 16.51 90,783
2010-05-12 Bishkin S. James Sale 5,500 17.17 94,435
2010-05-05 Roberts Phillip Wayne Jr (Senior VP, HR) Sale 20,400 17.28 352,512
2010-05-05 Roberts Phillip Wayne Jr (Senior VP, HR) Option Ex 20,400 5.09 103,836
2010-05-03 Moorman Lew (President, The Rackspace Cloud) Sale 10,000 18.60 186,020
2010-05-03 Moorman Lew (President, The Rackspace Cloud) Option Ex 10,000 1.20 12,000
2010-04-28 Bishkin S. James Sale 5,500 18.37 101,029
2010-04-15 Weston Graham M (Chairman) Sale 282,393 20.11 5,678,640
2010-04-15 Knooihuizen Bruce R (Chief Financial Officer) Sale 38,100 20.10 765,962
2010-04-15 Knooihuizen Bruce R (Chief Financial Officer) Option Ex 38,100 5.09 193,929
2010-04-14 Bishkin S. James Sale 5,500 19.64 108,047
2010-04-13 Weston Graham M (Chairman) Sale 50,000 19.24 961,849
2010-04-12 Weston Graham M (Chairman) Sale 50,000 19.51 975,550
2010-04-06 Weston Graham M (Chairman) Sale 50,000 19.56 977,800
2010-04-05 Kleber Klee Robert (SVP Marketing and Product Dev.) Sale 5,000 19.67 98,370
2010-04-05 Kleber Klee Robert (SVP Marketing and Product Dev.) Option Ex 5,000 4.94 24,700
2010-04-05 Weston Graham M (Chairman) Sale 50,000 19.71 985,350
2010-04-01 Moorman Lew (President, The Rackspace Cloud) Sale 10,000 18.87 188,730
2010-04-01 Moorman Lew (President, The Rackspace Cloud) Option Ex 10,000 1.20 12,000
2010-03-31 Bishkin S. James Sale 5,500 18.63 102,454
2010-03-30 Weston Graham M (Chairman) Sale 50,000 18.11 905,500
2010-03-29 Weston Graham M (Chairman) Sale 50,000 17.87 893,399
2010-03-23 Weston Graham M (Chairman) Sale 50,000 19.29 964,650
2010-03-22 Weston Graham M (Chairman) Sale 50,000 19.15 957,499
2010-03-17 Bishkin S. James Sale 5,500 19.32 106,249
2010-03-16 Weston Graham M (Chairman) Sale 50,000 18.57 928,350
2010-03-15 Weston Graham M (Chairman) Sale 50,000 18.73 936,550
2010-03-11 Roberts Phillip Wayne Jr (Senior VP, HR) Sale 200 19.30 3,860
2010-03-11 Roberts Phillip Wayne Jr (Senior VP, HR) Option Ex 200 19.30 3,860
2010-03-11 Weston Graham M (Chairman) Sale 40,000 18.92 756,680
2010-03-10 Weston Graham M (Chairman) Sale 60,000 19.37 1,162,320
2010-03-05 Lionato John Patrick (SVP, Customer Care) Sale 5,000 19.22 96,115
2010-03-05 Lionato John Patrick (SVP, Customer Care) Option Ex 5,000 5.09 25,450
2010-03-03 Napier A Lanham (CEO and President) Sale 29,165 19.29 562,651
2010-03-03 Bishkin S. James Sale 5,500 19.34 106,381
2010-03-02 Napier A Lanham (CEO and President) Sale 29,165 19.56 570,467
2010-03-02 Weston Graham M (Chairman) Sale 100,000 19.58 1,958,299
2010-03-01 Roberts Phillip Wayne Jr (VP, HR) Sale 300 20.00 6,000
2010-03-01 Roberts Phillip Wayne Jr (VP, HR) Option Ex 300 5.09 1,527
2010-03-01 Napier A Lanham (CEO and President) Sale 29,170 19.88 579,928
2010-03-01 Kleber Klee Robert (SVP Marketing and Product Dev.) Sale 5,000 19.88 99,385
2010-03-01 Kleber Klee Robert (SVP Marketing and Product Dev.) Option Ex 5,000 4.94 24,700
2010-03-01 Moorman Lew (President, The Rackspace Cloud) Sale 10,000 19.89 198,880
2010-03-01 Moorman Lew (President, The Rackspace Cloud) Option Ex 10,000 1.20 12,000
2010-03-01 Weston Graham M (Chairman) Sale 13,825 19.89 274,951
2010-03-01 Knooihuizen Bruce R (Chief Financial Officer) Sale 500 20.00 10,000
2010-03-01 Knooihuizen Bruce R (Chief Financial Officer) Option Ex 500 5.09 2,545
2010-02-26 Roberts Phillip Wayne Jr (VP, HR) Sale 700 20.01 14,006
2010-02-26 Roberts Phillip Wayne Jr (VP, HR) Option Ex 700 5.09 3,563
2010-02-26 Knooihuizen Bruce R (Chief Financial Officer) Sale 1,000 20.01 20,010
2010-02-26 Knooihuizen Bruce R (Chief Financial Officer) Option Ex 1,000 5.09 5,090
2010-02-25 Roberts Phillip Wayne Jr (VP, HR) Sale 4,400 20.01 88,030
2010-02-25 Roberts Phillip Wayne Jr (VP, HR) Option Ex 4,400 5.09 22,396
2010-02-25 Lewandowski James (Senior VP, Worldwide Sales) Sale 15,000 19.92 298,830
2010-02-25 Lewandowski James (Senior VP, Worldwide Sales) Option Ex 15,000 5.09 76,350
2010-02-25 Knooihuizen Bruce R (Chief Financial Officer) Sale 10,400 20.01 208,093
2010-02-25 Knooihuizen Bruce R (Chief Financial Officer) Option Ex 10,400 5.09 52,936
2010-02-24 Roberts Phillip Wayne Jr (VP, HR) Sale 10,000 20.01 200,110
2010-02-24 Roberts Phillip Wayne Jr (VP, HR) Option Ex 10,000 7.48 74,800
2010-02-24 Napier A Lanham (CEO and President) Sale 29,165 20.13 587,033
2010-02-24 Weston Graham M (Chairman) Sale 100,000 20.09 2,009,199
2010-02-23 Weston Graham M (Chairman) Sale 100,000 19.43 1,942,899
Go to page:  1   2   3   4   5   6 

Insider trading activities including stock purchases, stock sales, and option exercises of RAX listed in the above tables cannot be completely guaranteed as to their accuracy. For more insider trading information of Rackspace Hosting, Inc. (symbol RAX, CIK number 1107694) see the Securities and Exchange Commission (SEC) website.